LTAL Airport Information

Runway Information
Airport Frequencies
Airport Navaids
Airport Weather Information & NOTAM
ADDS - METARS form results

(0023 UTC 17 February 2019)
Data provider http://aviationweather.gov/metar/data/
 
Forecast for: LTAL (KASTAMONU , TR)
Text: TAF LTAL 161340Z 1615/1624 25008KT 9999 FEW027 BKN080
Forecast period: 1500 UTC 16 February 2019 to 0000 UTC 17 February 2019
Forecast type: FROM: standard forecast or significant change
Winds: from the WSW (250 degrees) at 9 MPH (8 knots; 4.1 m/s)
Visibility: 6 or more miles 10+ km)
Ceiling: 8000 feet AGL
Clouds: few clouds at 2700 feet AGL
broken clouds at 8000 feet AGL
Weather: no significant weather forecast for this period